sensor_id;sensor_type;location;lat;lon;timestamp;P1;durP1;ratioP1;P2;durP2;ratioP2
1995;SDS011;38556;47.068;15.408;2023-05-13T00:01:11;15.02;;;14.43;;
1995;SDS011;38556;47.068;15.408;2023-05-13T00:03:41;15.63;;;14.93;;
1995;SDS011;38556;47.068;15.408;2023-05-13T00:06:08;16.10;;;15.30;;
1995;SDS011;38556;47.068;15.408;2023-05-13T00:08:36;15.50;;;14.80;;
1995;SDS011;38556;47.068;15.408;2023-05-13T00:11:04;15.13;;;14.52;;
1995;SDS011;38556;47.068;15.408;2023-05-13T00:13:32;14.93;;;14.23;;
1995;SDS011;38556;47.068;15.408;2023-05-13T00:15:59;15.38;;;14.77;;
1995;SDS011;38556;47.068;15.408;2023-05-13T00:18:27;15.52;;;14.82;;
1995;SDS011;38556;47.068;15.408;2023-05-13T00:20:55;14.80;;;14.20;;
1995;SDS011;38556;47.068;15.408;2023-05-13T00:23:22;14.30;;;13.70;;
1995;SDS011;38556;47.068;15.408;2023-05-13T00:25:50;14.70;;;14.10;;
1995;SDS011;38556;47.068;15.408;2023-05-13T00:28:18;14.60;;;14.00;;
1995;SDS011;38556;47.068;15.408;2023-05-13T00:30:45;15.15;;;14.35;;
1995;SDS011;38556;47.068;15.408;2023-05-13T00:33:14;14.02;;;13.35;;
1995;SDS011;38556;47.068;15.408;2023-05-13T00:35:41;13.88;;;13.32;;
1995;SDS011;38556;47.068;15.408;2023-05-13T00:38:09;15.07;;;14.48;;
1995;SDS011;38556;47.068;15.408;2023-05-13T00:40:36;14.63;;;14.02;;
1995;SDS011;38556;47.068;15.408;2023-05-13T00:43:05;14.50;;;13.90;;
1995;SDS011;38556;47.068;15.408;2023-05-13T00:45:34;14.40;;;13.80;;
1995;SDS011;38556;47.068;15.408;2023-05-13T00:48:04;14.60;;;13.90;;
1995;SDS011;38556;47.068;15.408;2023-05-13T00:50:32;14.80;;;14.10;;
1995;SDS011;38556;47.068;15.408;2023-05-13T00:53:00;13.85;;;13.35;;
1995;SDS011;38556;47.068;15.408;2023-05-13T00:55:29;14.40;;;13.90;;
1995;SDS011;38556;47.068;15.408;2023-05-13T00:57:56;14.38;;;13.77;;
1995;SDS011;38556;47.068;15.408;2023-05-13T01:00:23;15.18;;;14.52;;
1995;SDS011;38556;47.068;15.408;2023-05-13T01:02:55;15.20;;;14.60;;
1995;SDS011;38556;47.068;15.408;2023-05-13T01:05:29;14.82;;;14.23;;
1995;SDS011;38556;47.068;15.408;2023-05-13T01:08:06;14.18;;;13.57;;
1995;SDS011;38556;47.068;15.408;2023-05-13T01:10:42;14.45;;;13.85;;
1995;SDS011;38556;47.068;15.408;2023-05-13T01:13:16;14.70;;;14.00;;
1995;SDS011;38556;47.068;15.408;2023-05-13T01:15:46;15.38;;;14.57;;
1995;SDS011;38556;47.068;15.408;2023-05-13T01:18:23;15.00;;;14.40;;
1995;SDS011;38556;47.068;15.408;2023-05-13T01:20:53;14.45;;;13.85;;
1995;SDS011;38556;47.068;15.408;2023-05-13T01:23:23;14.88;;;14.27;;
1995;SDS011;38556;47.068;15.408;2023-05-13T01:25:50;15.43;;;14.73;;
1995;SDS011;38556;47.068;15.408;2023-05-13T01:28:18;14.60;;;14.00;;
1995;SDS011;38556;47.068;15.408;2023-05-13T01:30:45;14.80;;;14.20;;
1995;SDS011;38556;47.068;15.408;2023-05-13T01:33:14;15.20;;;14.50;;
1995;SDS011;38556;47.068;15.408;2023-05-13T01:35:42;14.93;;;14.32;;
1995;SDS011;38556;47.068;15.408;2023-05-13T01:38:12;14.77;;;14.18;;
1995;SDS011;38556;47.068;15.408;2023-05-13T01:40:41;14.48;;;13.88;;
1995;SDS011;38556;47.068;15.408;2023-05-13T01:43:09;14.50;;;13.90;;
1995;SDS011;38556;47.068;15.408;2023-05-13T01:45:36;14.85;;;14.20;;
1995;SDS011;38556;47.068;15.408;2023-05-13T01:48:04;14.05;;;13.45;;
1995;SDS011;38556;47.068;15.408;2023-05-13T01:50:31;14.40;;;13.60;;
1995;SDS011;38556;47.068;15.408;2023-05-13T01:52:58;14.23;;;13.52;;
1995;SDS011;38556;47.068;15.408;2023-05-13T01:55:26;14.65;;;14.05;;
1995;SDS011;38556;47.068;15.408;2023-05-13T01:57:54;15.10;;;14.50;;
1995;SDS011;38556;47.068;15.408;2023-05-13T02:00:21;15.05;;;14.45;;
1995;SDS011;38556;47.068;15.408;2023-05-13T02:02:49;13.98;;;13.45;;
1995;SDS011;38556;47.068;15.408;2023-05-13T02:05:16;14.77;;;14.07;;
1995;SDS011;38556;47.068;15.408;2023-05-13T02:07:43;14.95;;;14.25;;
1995;SDS011;38556;47.068;15.408;2023-05-13T02:10:11;14.15;;;13.55;;
1995;SDS011;38556;47.068;15.408;2023-05-13T02:12:38;14.00;;;13.40;;
1995;SDS011;38556;47.068;15.408;2023-05-13T02:15:08;13.82;;;13.30;;
1995;SDS011;38556;47.068;15.408;2023-05-13T02:17:35;13.73;;;13.13;;
1995;SDS011;38556;47.068;15.408;2023-05-13T02:20:03;15.52;;;14.73;;
1995;SDS011;38556;47.068;15.408;2023-05-13T02:22:31;14.00;;;13.40;;
1995;SDS011;38556;47.068;15.408;2023-05-13T02:24:58;14.70;;;14.10;;
1995;SDS011;38556;47.068;15.408;2023-05-13T02:27:25;14.27;;;13.68;;
1995;SDS011;38556;47.068;15.408;2023-05-13T02:29:52;15.35;;;14.65;;
1995;SDS011;38556;47.068;15.408;2023-05-13T02:32:21;13.88;;;13.27;;
1995;SDS011;38556;47.068;15.408;2023-05-13T02:34:48;14.02;;;13.43;;
1995;SDS011;38556;47.068;15.408;2023-05-13T02:37:16;14.32;;;13.73;;
1995;SDS011;38556;47.068;15.408;2023-05-13T02:39:43;14.50;;;13.90;;
1995;SDS011;38556;47.068;15.408;2023-05-13T02:42:10;13.80;;;13.30;;
1995;SDS011;38556;47.068;15.408;2023-05-13T02:44:37;14.65;;;13.95;;
1995;SDS011;38556;47.068;15.408;2023-05-13T02:47:06;14.02;;;13.45;;
1995;SDS011;38556;47.068;15.408;2023-05-13T02:49:34;14.65;;;14.05;;
1995;SDS011;38556;47.068;15.408;2023-05-13T02:52:02;14.63;;;14.02;;
1995;SDS011;38556;47.068;15.408;2023-05-13T02:54:29;13.65;;;13.15;;
1995;SDS011;38556;47.068;15.408;2023-05-13T02:56:56;14.02;;;13.52;;
1995;SDS011;38556;47.068;15.408;2023-05-13T02:59:23;14.40;;;13.80;;
1995;SDS011;38556;47.068;15.408;2023-05-13T03:01:50;14.70;;;14.00;;
1995;SDS011;38556;47.068;15.408;2023-05-13T03:04:18;14.00;;;13.50;;
1995;SDS011;38556;47.068;15.408;2023-05-13T03:06:48;14.50;;;13.95;;
1995;SDS011;38556;47.068;15.408;2023-05-13T03:09:17;15.30;;;14.65;;
1995;SDS011;38556;47.068;15.408;2023-05-13T03:11:44;14.98;;;14.27;;
1995;SDS011;38556;47.068;15.408;2023-05-13T03:14:12;14.80;;;14.20;;
1995;SDS011;38556;47.068;15.408;2023-05-13T03:16:39;14.35;;;13.77;;
1995;SDS011;38556;47.068;15.408;2023-05-13T03:19:06;15.10;;;14.40;;
1995;SDS011;38556;47.068;15.408;2023-05-13T03:21:33;14.70;;;14.10;;
1995;SDS011;38556;47.068;15.408;2023-05-13T03:24:02;15.73;;;15.02;;
1995;SDS011;38556;47.068;15.408;2023-05-13T03:26:30;16.00;;;15.07;;
1995;SDS011;38556;47.068;15.408;2023-05-13T03:28:57;16.10;;;15.10;;
1995;SDS011;38556;47.068;15.408;2023-05-13T03:31:26;15.32;;;14.73;;
1995;SDS011;38556;47.068;15.408;2023-05-13T03:33:53;15.75;;;15.10;;
1995;SDS011;38556;47.068;15.408;2023-05-13T03:36:21;15.93;;;15.20;;
1995;SDS011;38556;47.068;15.408;2023-05-13T03:38:48;15.20;;;14.60;;
1995;SDS011;38556;47.068;15.408;2023-05-13T03:41:17;15.40;;;14.80;;
1995;SDS011;38556;47.068;15.408;2023-05-13T03:43:44;15.80;;;15.10;;
1995;SDS011;38556;47.068;15.408;2023-05-13T03:46:12;15.55;;;14.85;;
1995;SDS011;38556;47.068;15.408;2023-05-13T03:48:39;16.02;;;15.32;;
1995;SDS011;38556;47.068;15.408;2023-05-13T03:51:07;15.95;;;15.15;;
1995;SDS011;38556;47.068;15.408;2023-05-13T03:53:34;15.00;;;14.30;;
1995;SDS011;38556;47.068;15.408;2023-05-13T03:56:01;16.75;;;16.05;;
1995;SDS011;38556;47.068;15.408;2023-05-13T03:58:30;15.25;;;14.60;;
1995;SDS011;38556;47.068;15.408;2023-05-13T04:00:58;18.50;;;17.70;;
1995;SDS011;38556;47.068;15.408;2023-05-13T04:03:25;18.10;;;17.30;;
1995;SDS011;38556;47.068;15.408;2023-05-13T04:05:53;16.67;;;16.08;;
1995;SDS011;38556;47.068;15.408;2023-05-13T04:08:20;17.92;;;17.23;;
1995;SDS011;38556;47.068;15.408;2023-05-13T04:10:47;17.35;;;16.60;;
1995;SDS011;38556;47.068;15.408;2023-05-13T04:13:14;16.70;;;16.00;;
1995;SDS011;38556;47.068;15.408;2023-05-13T04:15:43;17.20;;;16.50;;
1995;SDS011;38556;47.068;15.408;2023-05-13T04:18:10;16.50;;;15.80;;
1995;SDS011;38556;47.068;15.408;2023-05-13T04:20:38;17.27;;;16.48;;
1995;SDS011;38556;47.068;15.408;2023-05-13T04:23:05;17.88;;;17.13;;
1995;SDS011;38556;47.068;15.408;2023-05-13T04:25:33;17.52;;;16.73;;
1995;SDS011;38556;47.068;15.408;2023-05-13T04:28:01;18.45;;;17.65;;
1995;SDS011;38556;47.068;15.408;2023-05-13T04:30:29;18.15;;;17.33;;
1995;SDS011;38556;47.068;15.408;2023-05-13T04:32:58;18.55;;;17.70;;
1995;SDS011;38556;47.068;15.408;2023-05-13T04:35:25;17.85;;;17.13;;
1995;SDS011;38556;47.068;15.408;2023-05-13T04:37:52;18.85;;;18.05;;
1995;SDS011;38556;47.068;15.408;2023-05-13T04:40:20;18.48;;;17.60;;
1995;SDS011;38556;47.068;15.408;2023-05-13T04:42:47;18.45;;;17.55;;
1995;SDS011;38556;47.068;15.408;2023-05-13T04:45:19;17.60;;;16.80;;
1995;SDS011;38556;47.068;15.408;2023-05-13T04:47:46;19.20;;;18.30;;
1995;SDS011;38556;47.068;15.408;2023-05-13T04:50:15;19.05;;;18.20;;
1995;SDS011;38556;47.068;15.408;2023-05-13T04:52:42;17.33;;;16.63;;
1995;SDS011;38556;47.068;15.408;2023-05-13T04:55:11;18.40;;;17.60;;
1995;SDS011;38556;47.068;15.408;2023-05-13T04:57:39;17.88;;;17.08;;
1995;SDS011;38556;47.068;15.408;2023-05-13T05:00:06;18.40;;;17.60;;
1995;SDS011;38556;47.068;15.408;2023-05-13T05:02:34;19.27;;;18.27;;
1995;SDS011;38556;47.068;15.408;2023-05-13T05:05:01;18.00;;;17.10;;
1995;SDS011;38556;47.068;15.408;2023-05-13T05:07:30;19.63;;;18.73;;
1995;SDS011;38556;47.068;15.408;2023-05-13T05:09:57;19.23;;;18.05;;
1995;SDS011;38556;47.068;15.408;2023-05-13T05:12:25;19.88;;;18.88;;
1995;SDS011;38556;47.068;15.408;2023-05-13T05:14:54;19.75;;;18.75;;
1995;SDS011;38556;47.068;15.408;2023-05-13T05:17:22;19.55;;;18.55;;
1995;SDS011;38556;47.068;15.408;2023-05-13T05:19:49;19.92;;;18.90;;
1995;SDS011;38556;47.068;15.408;2023-05-13T05:22:16;19.77;;;18.77;;
1995;SDS011;38556;47.068;15.408;2023-05-13T05:24:45;21.75;;;20.65;;
1995;SDS011;38556;47.068;15.408;2023-05-13T05:27:13;20.17;;;19.15;;
1995;SDS011;38556;47.068;15.408;2023-05-13T05:29:40;21.23;;;20.02;;
1995;SDS011;38556;47.068;15.408;2023-05-13T05:32:08;20.63;;;19.33;;
1995;SDS011;38556;47.068;15.408;2023-05-13T05:34:35;22.55;;;21.25;;
1995;SDS011;38556;47.068;15.408;2023-05-13T05:37:02;23.65;;;22.38;;
1995;SDS011;38556;47.068;15.408;2023-05-13T05:39:30;23.25;;;21.95;;
1995;SDS011;38556;47.068;15.408;2023-05-13T05:41:59;27.30;;;25.40;;
1995;SDS011;38556;47.068;15.408;2023-05-13T05:44:26;24.65;;;23.15;;
1995;SDS011;38556;47.068;15.408;2023-05-13T05:46:53;27.55;;;25.77;;
1995;SDS011;38556;47.068;15.408;2023-05-13T05:49:20;27.17;;;25.52;;
1995;SDS011;38556;47.068;15.408;2023-05-13T05:51:48;27.80;;;25.90;;
1995;SDS011;38556;47.068;15.408;2023-05-13T05:54:15;27.20;;;25.52;;
1995;SDS011;38556;47.068;15.408;2023-05-13T05:56:42;29.23;;;27.33;;
1995;SDS011;38556;47.068;15.408;2023-05-13T05:59:11;28.15;;;26.35;;
1995;SDS011;38556;47.068;15.408;2023-05-13T06:01:38;30.67;;;28.42;;
1995;SDS011;38556;47.068;15.408;2023-05-13T06:04:05;29.98;;;27.77;;
1995;SDS011;38556;47.068;15.408;2023-05-13T06:06:33;28.83;;;26.88;;
1995;SDS011;38556;47.068;15.408;2023-05-13T06:09:00;29.45;;;27.25;;
1995;SDS011;38556;47.068;15.408;2023-05-13T06:11:28;29.00;;;27.10;;
1995;SDS011;38556;47.068;15.408;2023-05-13T06:13:55;28.00;;;26.10;;
1995;SDS011;38556;47.068;15.408;2023-05-13T06:16:24;28.42;;;26.33;;
1995;SDS011;38556;47.068;15.408;2023-05-13T06:18:51;36.72;;;33.97;;
1995;SDS011;38556;47.068;15.408;2023-05-13T06:21:19;31.33;;;29.23;;
1995;SDS011;38556;47.068;15.408;2023-05-13T06:23:46;29.02;;;26.98;;
1995;SDS011;38556;47.068;15.408;2023-05-13T06:26:13;29.50;;;27.40;;
1995;SDS011;38556;47.068;15.408;2023-05-13T06:28:40;29.27;;;27.30;;
1995;SDS011;38556;47.068;15.408;2023-05-13T06:31:08;29.42;;;27.23;;
1995;SDS011;38556;47.068;15.408;2023-05-13T06:33:36;29.85;;;27.65;;
1995;SDS011;38556;47.068;15.408;2023-05-13T06:36:04;30.40;;;28.27;;
1995;SDS011;38556;47.068;15.408;2023-05-13T06:38:32;26.27;;;24.58;;
1995;SDS011;38556;47.068;15.408;2023-05-13T06:41:00;26.70;;;25.10;;
1995;SDS011;38556;47.068;15.408;2023-05-13T06:43:27;27.75;;;25.88;;
1995;SDS011;38556;47.068;15.408;2023-05-13T06:45:54;25.73;;;24.02;;
1995;SDS011;38556;47.068;15.408;2023-05-13T06:48:21;25.35;;;23.85;;
1995;SDS011;38556;47.068;15.408;2023-05-13T06:50:50;24.90;;;23.40;;
1995;SDS011;38556;47.068;15.408;2023-05-13T06:53:18;26.80;;;25.10;;
1995;SDS011;38556;47.068;15.408;2023-05-13T06:55:45;26.85;;;25.15;;
1995;SDS011;38556;47.068;15.408;2023-05-13T06:58:13;27.13;;;25.33;;
1995;SDS011;38556;47.068;15.408;2023-05-13T07:00:40;25.70;;;24.17;;
1995;SDS011;38556;47.068;15.408;2023-05-13T07:03:07;26.52;;;24.83;;
1995;SDS011;38556;47.068;15.408;2023-05-13T07:05:35;25.45;;;23.95;;
1995;SDS011;38556;47.068;15.408;2023-05-13T07:08:04;25.70;;;24.10;;
1995;SDS011;38556;47.068;15.408;2023-05-13T07:10:33;26.10;;;24.20;;
1995;SDS011;38556;47.068;15.408;2023-05-13T07:13:01;25.83;;;24.23;;
1995;SDS011;38556;47.068;15.408;2023-05-13T07:15:29;24.90;;;23.40;;
1995;SDS011;38556;47.068;15.408;2023-05-13T07:17:56;24.60;;;23.10;;
1995;SDS011;38556;47.068;15.408;2023-05-13T07:20:24;25.75;;;24.15;;
1995;SDS011;38556;47.068;15.408;2023-05-13T07:22:51;26.27;;;24.67;;
1995;SDS011;38556;47.068;15.408;2023-05-13T07:25:20;25.70;;;24.00;;
1995;SDS011;38556;47.068;15.408;2023-05-13T07:27:47;23.30;;;22.00;;
1995;SDS011;38556;47.068;15.408;2023-05-13T07:30:15;24.77;;;23.27;;
1995;SDS011;38556;47.068;15.408;2023-05-13T07:32:42;26.00;;;24.40;;
1995;SDS011;38556;47.068;15.408;2023-05-13T07:35:09;23.38;;;21.98;;
1995;SDS011;38556;47.068;15.408;2023-05-13T07:37:36;22.90;;;21.70;;
1995;SDS011;38556;47.068;15.408;2023-05-13T07:40:04;24.48;;;23.10;;
1995;SDS011;38556;47.068;15.408;2023-05-13T07:42:34;24.33;;;23.02;;
1995;SDS011;38556;47.068;15.408;2023-05-13T07:45:03;23.58;;;22.17;;
1995;SDS011;38556;47.068;15.408;2023-05-13T07:47:31;24.52;;;23.20;;
1995;SDS011;38556;47.068;15.408;2023-05-13T07:49:58;23.58;;;22.30;;
1995;SDS011;38556;47.068;15.408;2023-05-13T07:52:25;23.95;;;22.65;;
1995;SDS011;38556;47.068;15.408;2023-05-13T07:54:53;22.70;;;21.60;;
1995;SDS011;38556;47.068;15.408;2023-05-13T07:57:20;22.63;;;21.33;;
1995;SDS011;38556;47.068;15.408;2023-05-13T07:59:49;21.50;;;20.35;;
1995;SDS011;38556;47.068;15.408;2023-05-13T08:02:16;21.65;;;20.63;;
1995;SDS011;38556;47.068;15.408;2023-05-13T08:04:44;21.55;;;20.45;;
1995;SDS011;38556;47.068;15.408;2023-05-13T08:07:11;21.45;;;20.25;;
1995;SDS011;38556;47.068;15.408;2023-05-13T08:09:39;21.98;;;20.77;;
1995;SDS011;38556;47.068;15.408;2023-05-13T08:12:06;22.00;;;21.00;;
1995;SDS011;38556;47.068;15.408;2023-05-13T08:14:34;21.27;;;20.00;;
1995;SDS011;38556;47.068;15.408;2023-05-13T08:17:04;21.40;;;20.30;;
1995;SDS011;38556;47.068;15.408;2023-05-13T08:19:32;21.60;;;20.50;;
1995;SDS011;38556;47.068;15.408;2023-05-13T08:22:00;21.70;;;20.60;;
1995;SDS011;38556;47.068;15.408;2023-05-13T08:24:28;22.08;;;20.88;;
1995;SDS011;38556;47.068;15.408;2023-05-13T08:26:55;21.17;;;20.17;;
1995;SDS011;38556;47.068;15.408;2023-05-13T08:29:23;20.50;;;19.50;;
1995;SDS011;38556;47.068;15.408;2023-05-13T08:31:50;20.58;;;19.58;;
1995;SDS011;38556;47.068;15.408;2023-05-13T08:34:20;20.80;;;19.50;;
1995;SDS011;38556;47.068;15.408;2023-05-13T08:36:47;20.88;;;19.88;;
1995;SDS011;38556;47.068;15.408;2023-05-13T08:39:14;19.67;;;18.70;;
1995;SDS011;38556;47.068;15.408;2023-05-13T08:41:41;19.08;;;18.27;;
1995;SDS011;38556;47.068;15.408;2023-05-13T08:44:11;19.33;;;18.42;;
1995;SDS011;38556;47.068;15.408;2023-05-13T08:46:39;18.95;;;17.98;;
1995;SDS011;38556;47.068;15.408;2023-05-13T08:49:10;18.77;;;17.98;;
1995;SDS011;38556;47.068;15.408;2023-05-13T08:51:40;19.67;;;18.73;;
1995;SDS011;38556;47.068;15.408;2023-05-13T08:54:09;19.88;;;18.92;;
1995;SDS011;38556;47.068;15.408;2023-05-13T08:56:36;18.95;;;18.15;;
1995;SDS011;38556;47.068;15.408;2023-05-13T08:59:04;19.05;;;18.15;;
1995;SDS011;38556;47.068;15.408;2023-05-13T09:01:31;19.58;;;18.67;;
1995;SDS011;38556;47.068;15.408;2023-05-13T09:04:00;20.13;;;19.13;;
1995;SDS011;38556;47.068;15.408;2023-05-13T09:06:30;20.10;;;19.20;;
1995;SDS011;38556;47.068;15.408;2023-05-13T09:08:59;18.70;;;17.90;;
1995;SDS011;38556;47.068;15.408;2023-05-13T09:11:27;18.65;;;17.85;;
1995;SDS011;38556;47.068;15.408;2023-05-13T09:13:55;18.10;;;17.30;;
1995;SDS011;38556;47.068;15.408;2023-05-13T09:16:23;18.50;;;17.70;;
1995;SDS011;38556;47.068;15.408;2023-05-13T09:18:54;18.45;;;17.65;;
1995;SDS011;38556;47.068;15.408;2023-05-13T09:21:24;19.30;;;18.40;;
1995;SDS011;38556;47.068;15.408;2023-05-13T09:24:06;19.00;;;18.20;;
1995;SDS011;38556;47.068;15.408;2023-05-13T09:26:35;19.75;;;18.85;;
1995;SDS011;38556;47.068;15.408;2023-05-13T09:29:19;18.60;;;17.80;;
1995;SDS011;38556;47.068;15.408;2023-05-13T09:31:48;18.80;;;17.90;;
1995;SDS011;38556;47.068;15.408;2023-05-13T09:34:27;20.30;;;19.35;;
1995;SDS011;38556;47.068;15.408;2023-05-13T09:37:01;19.65;;;18.75;;
1995;SDS011;38556;47.068;15.408;2023-05-13T09:39:32;23.15;;;21.85;;
1995;SDS011;38556;47.068;15.408;2023-05-13T09:42:03;19.95;;;18.95;;
1995;SDS011;38556;47.068;15.408;2023-05-13T09:44:31;20.00;;;19.10;;
1995;SDS011;38556;47.068;15.408;2023-05-13T09:46:59;20.48;;;19.42;;
1995;SDS011;38556;47.068;15.408;2023-05-13T09:49:28;21.40;;;20.20;;
1995;SDS011;38556;47.068;15.408;2023-05-13T09:51:57;21.13;;;20.13;;
1995;SDS011;38556;47.068;15.408;2023-05-13T09:54:24;22.23;;;21.10;;
1995;SDS011;38556;47.068;15.408;2023-05-13T09:56:58;21.42;;;20.33;;
1995;SDS011;38556;47.068;15.408;2023-05-13T09:59:25;20.45;;;19.35;;
1995;SDS011;38556;47.068;15.408;2023-05-13T10:01:53;20.80;;;19.52;;
1995;SDS011;38556;47.068;15.408;2023-05-13T10:04:24;18.75;;;17.95;;
1995;SDS011;38556;47.068;15.408;2023-05-13T10:06:53;19.08;;;18.17;;
1995;SDS011;38556;47.068;15.408;2023-05-13T10:09:21;19.27;;;18.38;;
1995;SDS011;38556;47.068;15.408;2023-05-13T10:11:50;19.48;;;18.58;;
1995;SDS011;38556;47.068;15.408;2023-05-13T10:14:19;19.20;;;18.30;;
1995;SDS011;38556;47.068;15.408;2023-05-13T10:16:47;18.67;;;17.88;;
1995;SDS011;38556;47.068;15.408;2023-05-13T10:19:16;18.27;;;17.30;;
1995;SDS011;38556;47.068;15.408;2023-05-13T10:21:44;20.17;;;19.17;;
1995;SDS011;38556;47.068;15.408;2023-05-13T10:24:12;19.20;;;18.30;;
1995;SDS011;38556;47.068;15.408;2023-05-13T10:26:39;18.30;;;17.50;;
1995;SDS011;38556;47.068;15.408;2023-05-13T10:29:08;18.45;;;17.65;;
1995;SDS011;38556;47.068;15.408;2023-05-13T10:31:37;17.60;;;16.90;;
1995;SDS011;38556;47.068;15.408;2023-05-13T10:34:06;17.85;;;17.05;;
1995;SDS011;38556;47.068;15.408;2023-05-13T10:36:37;19.95;;;18.90;;
1995;SDS011;38556;47.068;15.408;2023-05-13T10:39:26;18.20;;;17.40;;
1995;SDS011;38556;47.068;15.408;2023-05-13T10:42:18;17.52;;;16.83;;
1995;SDS011;38556;47.068;15.408;2023-05-13T10:45:03;17.40;;;16.70;;
1995;SDS011;38556;47.068;15.408;2023-05-13T10:47:32;18.55;;;17.52;;
1995;SDS011;38556;47.068;15.408;2023-05-13T10:50:03;18.33;;;17.52;;
1995;SDS011;38556;47.068;15.408;2023-05-13T10:52:40;19.02;;;18.20;;
1995;SDS011;38556;47.068;15.408;2023-05-13T10:55:16;18.95;;;18.05;;
1995;SDS011;38556;47.068;15.408;2023-05-13T10:58:03;19.27;;;18.40;;
1995;SDS011;38556;47.068;15.408;2023-05-13T11:00:36;19.05;;;18.15;;
1995;SDS011;38556;47.068;15.408;2023-05-13T11:03:09;18.73;;;17.83;;
1995;SDS011;38556;47.068;15.408;2023-05-13T11:05:38;19.02;;;18.17;;
1995;SDS011;38556;47.068;15.408;2023-05-13T11:08:06;20.35;;;19.25;;
1995;SDS011;38556;47.068;15.408;2023-05-13T11:10:33;19.70;;;18.80;;
1995;SDS011;38556;47.068;15.408;2023-05-13T11:13:05;21.73;;;20.52;;
1995;SDS011;38556;47.068;15.408;2023-05-13T11:15:48;21.90;;;20.60;;
1995;SDS011;38556;47.068;15.408;2023-05-13T11:18:17;23.10;;;21.80;;
1995;SDS011;38556;47.068;15.408;2023-05-13T11:20:46;24.92;;;23.55;;
1995;SDS011;38556;47.068;15.408;2023-05-13T11:23:18;22.90;;;21.58;;
1995;SDS011;38556;47.068;15.408;2023-05-13T11:25:46;24.50;;;23.00;;
1995;SDS011;38556;47.068;15.408;2023-05-13T11:28:53;26.42;;;24.65;;
1995;SDS011;38556;47.068;15.408;2023-05-13T11:31:21;26.65;;;25.08;;
1995;SDS011;38556;47.068;15.408;2023-05-13T11:34:05;26.63;;;25.02;;
1995;SDS011;38556;47.068;15.408;2023-05-13T11:36:38;29.05;;;27.08;;
1995;SDS011;38556;47.068;15.408;2023-05-13T11:39:06;28.60;;;26.55;;
1995;SDS011;38556;47.068;15.408;2023-05-13T11:41:38;30.40;;;28.10;;
1995;SDS011;38556;47.068;15.408;2023-05-13T11:44:06;31.85;;;29.65;;
1995;SDS011;38556;47.068;15.408;2023-05-13T11:46:35;33.20;;;30.60;;
1995;SDS011;38556;47.068;15.408;2023-05-13T11:49:02;30.70;;;28.63;;
1995;SDS011;38556;47.068;15.408;2023-05-13T11:51:31;33.95;;;31.35;;
1995;SDS011;38556;47.068;15.408;2023-05-13T11:54:00;32.03;;;29.63;;
1995;SDS011;38556;47.068;15.408;2023-05-13T11:56:28;29.98;;;27.98;;
1995;SDS011;38556;47.068;15.408;2023-05-13T11:59:10;31.08;;;28.88;;
1995;SDS011;38556;47.068;15.408;2023-05-13T12:01:40;33.25;;;30.27;;
1995;SDS011;38556;47.068;15.408;2023-05-13T12:04:07;31.25;;;28.95;;
1995;SDS011;38556;47.068;15.408;2023-05-13T12:06:43;30.63;;;28.52;;
1995;SDS011;38556;47.068;15.408;2023-05-13T12:09:11;30.40;;;28.17;;
1995;SDS011;38556;47.068;15.408;2023-05-13T12:11:39;31.40;;;29.10;;
1995;SDS011;38556;47.068;15.408;2023-05-13T12:14:06;32.92;;;30.35;;
1995;SDS011;38556;47.068;15.408;2023-05-13T12:16:35;32.42;;;29.92;;
1995;SDS011;38556;47.068;15.408;2023-05-13T12:19:05;32.13;;;29.65;;
1995;SDS011;38556;47.068;15.408;2023-05-13T12:21:33;32.58;;;30.15;;
1995;SDS011;38556;47.068;15.408;2023-05-13T12:24:01;31.80;;;29.17;;
1995;SDS011;38556;47.068;15.408;2023-05-13T12:26:42;31.33;;;28.92;;
1995;SDS011;38556;47.068;15.408;2023-05-13T12:29:09;30.45;;;28.45;;
1995;SDS011;38556;47.068;15.408;2023-05-13T12:31:36;31.45;;;29.40;;
1995;SDS011;38556;47.068;15.408;2023-05-13T12:34:03;31.33;;;29.02;;
1995;SDS011;38556;47.068;15.408;2023-05-13T12:36:35;29.73;;;27.63;;
1995;SDS011;38556;47.068;15.408;2023-05-13T12:39:04;29.58;;;27.42;;
1995;SDS011;38556;47.068;15.408;2023-05-13T12:41:35;31.88;;;29.35;;
1995;SDS011;38556;47.068;15.408;2023-05-13T12:44:06;32.05;;;29.65;;
1995;SDS011;38556;47.068;15.408;2023-05-13T12:46:34;29.90;;;27.90;;
1995;SDS011;38556;47.068;15.408;2023-05-13T12:49:02;30.67;;;28.63;;
1995;SDS011;38556;47.068;15.408;2023-05-13T12:51:30;30.13;;;28.13;;
1995;SDS011;38556;47.068;15.408;2023-05-13T12:53:58;28.83;;;26.92;;
1995;SDS011;38556;47.068;15.408;2023-05-13T12:56:27;27.73;;;25.92;;
1995;SDS011;38556;47.068;15.408;2023-05-13T12:58:54;27.30;;;25.60;;
1995;SDS011;38556;47.068;15.408;2023-05-13T13:01:22;25.60;;;24.10;;
1995;SDS011;38556;47.068;15.408;2023-05-13T13:03:49;26.58;;;25.10;;
1995;SDS011;38556;47.068;15.408;2023-05-13T13:06:17;25.80;;;24.17;;
1995;SDS011;38556;47.068;15.408;2023-05-13T13:08:44;25.88;;;24.20;;
1995;SDS011;38556;47.068;15.408;2023-05-13T13:11:12;27.60;;;25.83;;
1995;SDS011;38556;47.068;15.408;2023-05-13T13:13:44;25.67;;;24.17;;
1995;SDS011;38556;47.068;15.408;2023-05-13T13:16:12;27.40;;;25.60;;
1995;SDS011;38556;47.068;15.408;2023-05-13T13:18:39;25.73;;;24.33;;
1995;SDS011;38556;47.068;15.408;2023-05-13T13:21:08;24.33;;;22.88;;
1995;SDS011;38556;47.068;15.408;2023-05-13T13:23:35;27.63;;;25.80;;
1995;SDS011;38556;47.068;15.408;2023-05-13T13:26:03;25.27;;;23.88;;
1995;SDS011;38556;47.068;15.408;2023-05-13T13:28:30;26.20;;;24.80;;
1995;SDS011;38556;47.068;15.408;2023-05-13T13:30:59;25.08;;;23.58;;
1995;SDS011;38556;47.068;15.408;2023-05-13T13:33:26;24.33;;;23.02;;
1995;SDS011;38556;47.068;15.408;2023-05-13T13:35:53;24.58;;;23.17;;
1995;SDS011;38556;47.068;15.408;2023-05-13T13:38:21;25.98;;;24.08;;
1995;SDS011;38556;47.068;15.408;2023-05-13T13:40:48;24.00;;;22.60;;
1995;SDS011;38556;47.068;15.408;2023-05-13T13:43:16;26.20;;;24.50;;
1995;SDS011;38556;47.068;15.408;2023-05-13T13:45:43;25.55;;;24.05;;
1995;SDS011;38556;47.068;15.408;2023-05-13T13:48:13;25.63;;;24.02;;
1995;SDS011;38556;47.068;15.408;2023-05-13T13:50:40;27.17;;;25.42;;
1995;SDS011;38556;47.068;15.408;2023-05-13T13:53:07;24.40;;;23.00;;
1995;SDS011;38556;47.068;15.408;2023-05-13T13:55:35;23.77;;;22.48;;
1995;SDS011;38556;47.068;15.408;2023-05-13T13:58:02;23.13;;;21.80;;
1995;SDS011;38556;47.068;15.408;2023-05-13T14:00:29;23.75;;;22.25;;
1995;SDS011;38556;47.068;15.408;2023-05-13T14:02:56;24.52;;;23.00;;
1995;SDS011;38556;47.068;15.408;2023-05-13T14:05:26;25.52;;;23.92;;
1995;SDS011;38556;47.068;15.408;2023-05-13T14:07:54;24.10;;;22.60;;
1995;SDS011;38556;47.068;15.408;2023-05-13T14:10:21;23.90;;;22.50;;
1995;SDS011;38556;47.068;15.408;2023-05-13T14:12:49;26.48;;;24.88;;
1995;SDS011;38556;47.068;15.408;2023-05-13T14:15:16;24.98;;;23.52;;
1995;SDS011;38556;47.068;15.408;2023-05-13T14:17:44;27.20;;;25.40;;
1995;SDS011;38556;47.068;15.408;2023-05-13T14:20:11;26.08;;;24.17;;
1995;SDS011;38556;47.068;15.408;2023-05-13T14:22:40;25.17;;;23.58;;
1995;SDS011;38556;47.068;15.408;2023-05-13T14:25:07;27.48;;;25.67;;
1995;SDS011;38556;47.068;15.408;2023-05-13T14:27:35;28.10;;;26.02;;
1995;SDS011;38556;47.068;15.408;2023-05-13T14:30:02;24.02;;;22.63;;